Date,TemperatureHighF,TemperatureAvgF,TemperatureLowF,DewpointHighF,DewpointAvgF,DewpointLowF,HumidityHigh,HumidityAvg,HumidityLow,PressureMaxIn,PressureMinIn,WindSpeedMaxMPH,WindSpeedAvgMPH,GustSpeedMaxMPH,PrecipitationSumIn
2013-1-1,60.5,47.4,39.1,40.4,36.7,30.5,92,70,33,30.13,29.99,4,1,8,0.00
2013-1-2,68.3,49.4,36.1,35.8,31.2,23.2,83,56,19,30.03,29.92,6,2,8,0.00
2013-1-3,69.4,48.7,34.3,42.8,35.0,22.3,88,66,20,30.07,29.95,6,1,8,0.00
2013-1-4,65.8,47.9,34.7,41.3,32.2,18.1,88,62,16,30.17,30.07,5,1,8,0.00
2013-1-5,64.0,42.7,33.7,43.3,34.2,23.7,89,75,22,30.18,30.07,5,0,7,0.00
2013-1-6,56.8,50.1,43.6,49.0,43.3,39.1,94,78,54,30.10,29.92,11,3,14,0.05
2013-1-7,65.4,50.2,37.8,44.7,38.6,28.2,94,70,28,29.99,29.87,8,2,11,0.01
2013-1-8,64.9,50.6,37.7,52.4,44.1,35.1,92,80,49,30.01,29.92,5,1,10,0.00
2013-1-9,64.8,52.4,41.1,52.1,47.1,39.4,95,83,60,30.02,29.91,4,1,7,0.01
2013-1-10,58.6,51.9,43.9,48.9,37.0,23.7,90,59,27,30.00,29.81,15,7,22,0.02
2013-1-11,55.2,48.1,38.6,30.7,22.1,17.4,56,36,26,30.08,29.95,13,7,19,0.00
2013-1-12,56.0,44.7,34.3,32.7,26.6,18.1,82,52,24,30.06,29.97,7,3,12,0.00
2013-1-13,56.5,42.6,30.6,31.2,27.3,17.9,85,59,25,30.06,29.95,8,2,10,0.00
2013-1-14,55.7,45.6,36.1,30.2,13.7,2.2,61,30,14,30.23,30.02,8,4,13,0.00
2013-1-15,60.5,44.0,30.3,35.3,25.3,14.1,79,53,18,30.35,30.21,10,2,13,0.00
2013-1-16,68.9,49.6,34.1,39.8,34.1,29.2,88,61,23,30.25,30.01,8,2,11,0.00
2013-1-17,78.8,56.9,37.8,36.8,28.3,20.1,78,41,12,30.06,29.92,10,3,16,0.00
2013-1-18,80.7,57.4,40.0,36.1,29.5,24.7,68,39,14,30.02,29.92,6,2,11,0.00
2013-1-19,78.4,56.6,41.1,36.2,29.8,24.6,74,41,15,30.07,29.95,5,2,6,0.00
2013-1-20,81.1,57.0,40.8,43.4,29.5,21.0,61,40,11,30.02,29.87,6,2,7,0.00
2013-1-21,81.9,57.1,39.3,33.7,28.4,21.3,69,39,11,29.97,29.87,6,2,8,0.00
2013-1-22,81.1,55.6,37.6,35.2,29.6,20.1,71,43,11,29.98,29.89,5,1,5,0.00
2013-1-23,71.8,59.4,48.6,52.1,38.1,31.4,84,48,26,30.03,29.90,8,2,9,0.01
2013-1-24,67.6,57.8,52.4,54.9,52.1,48.8,94,82,57,30.10,29.99,6,2,9,0.59
2013-1-25,66.1,60.0,57.1,58.8,56.3,54.6,94,88,69,30.00,29.84,5,2,7,0.12
2013-1-26,64.3,58.5,54.2,60.5,55.5,51.9,94,90,77,29.89,29.78,8,2,11,0.03
2013-1-27,60.9,54.4,46.5,53.4,46.6,35.7,93,76,57,29.92,29.86,8,3,13,0.04
2013-1-28,60.8,50.2,39.8,38.3,31.4,25.7,74,50,26,30.07,29.92,14,4,18,0.00
2013-1-29,58.9,48.8,37.7,43.1,37.6,29.7,87,67,41,30.13,30.05,8,2,8,0.00
2013-1-30,68.3,51.7,39.4,45.6,40.1,36.9,92,68,35,30.23,30.10,8,1,8,0.00
2013-1-31,78.8,56.0,41.8,44.8,41.3,36.6,90,63,22,30.14,29.97,8,2,9,0.00
2013-2-1,70.8,56.4,43.9,49.2,44.3,39.2,90,68,32,30.06,29.98,7,1,8,0.00
2013-2-2,73.8,60.3,50.8,53.0,47.5,41.0,87,66,32,30.08,29.98,7,1,8,0.00
2013-2-3,74.6,59.8,50.7,53.8,50.0,42.8,90,73,32,30.02,29.89,9,2,12,0.00
2013-2-4,63.7,54.7,47.9,53.1,50.0,45.7,94,85,67,29.99,29.87,6,2,9,0.00
2013-2-5,57.5,53.9,51.8,49.8,47.9,46.2,87,80,73,30.00,29.89,7,2,8,0.00
2013-2-6,62.0,54.8,46.8,47.9,46.5,43.4,88,74,58,30.01,29.90,9,2,12,0.00
2013-2-7,61.4,51.0,41.4,49.7,44.0,39.3,93,78,61,30.03,29.89,8,2,9,0.00
2013-2-8,54.1,48.9,41.7,44.9,40.0,36.3,89,72,57,29.90,29.78,12,6,18,0.24
2013-2-9,57.4,45.9,35.4,42.7,38.2,33.3,94,76,47,30.00,29.83,8,2,12,0.01
2013-2-10,56.0,47.3,37.3,43.5,39.7,34.5,91,76,57,30.00,29.91,6,2,10,0.00
2013-2-11,60.5,49.6,39.0,43.3,39.3,33.9,92,70,37,30.13,29.95,10,2,13,0.00
2013-2-12,61.4,48.7,36.0,45.5,37.5,27.1,89,68,29,30.24,30.13,9,2,11,0.00
2013-2-13,65.1,50.2,37.3,44.4,39.3,34.4,91,69,35,30.16,30.02,7,2,11,0.00
2013-2-14,70.0,52.3,38.8,50.4,42.4,36.1,92,72,36,30.10,29.94,8,2,8,0.00
2013-2-15,81.5,61.2,43.0,44.1,34.9,25.9,84,46,13,30.07,29.98,8,3,13,0.00
2013-2-16,81.3,61.8,44.2,34.7,27.8,22.0,57,32,12,30.03,29.86,9,2,12,0.00
2013-2-17,64.8,52.7,41.6,50.6,45.1,34.0,90,76,55,29.92,29.82,9,3,14,0.00
2013-2-18,61.6,55.0,52.1,46.5,44.5,41.7,77,68,54,29.96,29.85,6,4,11,0.00
2013-2-19,57.1,51.8,45.9,45.3,40.9,37.4,90,67,51,29.89,29.61,12,7,19,0.27
2013-2-20,59.2,50.4,41.6,42.9,31.3,23.9,71,49,33,29.89,29.60,15,8,20,0.00
2013-2-21,62.2,50.3,39.1,43.4,38.4,31.1,85,65,43,29.98,29.86,9,3,13,0.00
2013-2-22,62.7,49.8,37.3,48.0,41.4,34.4,90,74,48,30.09,29.98,8,2,12,0.00
2013-2-23,62.7,50.9,38.4,47.3,42.4,35.9,91,74,44,30.06,29.82,9,2,14,0.00
2013-2-24,68.9,54.6,41.3,44.3,29.4,15.7,91,49,14,30.08,29.88,8,3,15,0.01
2013-2-25,65.6,51.6,37.1,44.8,34.2,23.9,79,55,22,30.11,29.96,8,2,13,0.00
2013-2-26,67.9,52.2,37.6,48.5,40.5,34.5,89,67,31,29.99,29.87,9,2,13,0.00
2013-2-27,76.2,57.6,42.0,44.5,30.9,19.4,82,45,13,30.15,30.00,9,3,12,0.00
2013-2-28,79.2,59.5,41.4,39.7,29.7,19.8,75,40,12,30.20,30.11,10,3,17,0.00
2013-3-1,86.5,64.7,44.6,38.7,32.3,24.8,73,37,12,30.18,30.01,10,3,14,0.00
2013-3-2,80.3,63.1,46.1,48.6,35.5,28.2,80,41,16,30.08,29.95,8,2,11,0.00
2013-3-3,66.9,56.8,52.6,52.6,50.4,46.7,91,80,49,30.00,29.87,10,3,16,0.00
2013-3-4,65.9,56.3,49.6,51.1,48.8,45.9,90,77,55,29.99,29.91,8,3,15,0.00
2013-3-5,62.5,55.2,50.2,50.7,48.1,43.7,90,78,63,30.02,29.93,9,3,14,0.00
2013-3-6,61.9,55.3,45.5,48.4,42.8,39.6,83,64,48,30.05,29.91,9,4,13,0.00
2013-3-7,60.6,55.1,52.3,50.9,47.9,44.4,87,77,63,29.91,29.74,8,3,13,0.00
2013-3-8,57.8,51.2,45.5,47.9,44.1,39.6,93,77,52,29.92,29.69,10,5,15,0.52
2013-3-9,63.0,53.5,45.3,47.3,43.3,35.4,88,70,40,30.11,29.90,11,3,15,0.00
2013-3-10,74.3,56.5,41.8,48.1,42.1,29.6,91,65,22,30.16,30.03,9,2,14,0.00
2013-3-11,70.0,56.4,41.7,52.5,44.9,38.4,89,68,39,30.07,29.93,6,2,10,0.00
2013-3-12,73.9,57.8,44.7,53.4,47.7,39.8,94,73,31,29.98,29.89,6,2,8,0.01
2013-3-13,77.1,58.2,45.8,53.4,48.9,41.7,93,74,31,30.01,29.90,6,2,9,0.00
2013-3-14,76.4,59.4,50.5,56.0,49.9,44.6,94,74,36,29.98,29.89,9,2,11,0.00
2013-3-15,63.7,56.0,52.3,53.7,51.7,49.8,92,86,67,29.95,29.84,7,2,10,0.00
2013-3-16,63.0,55.1,50.7,50.9,49.3,47.6,93,82,63,29.87,29.79,7,3,11,0.00
2013-3-17,64.6,57.6,52.0,50.7,49.3,47.1,86,75,59,29.90,29.83,7,3,11,0.00
2013-3-18,63.3,57.2,52.1,50.6,48.6,46.8,84,73,60,29.97,29.88,6,3,7,0.00
2013-3-19,64.3,55.6,48.7,52.1,49.3,45.6,91,80,63,30.01,29.94,8,2,10,0.00
2013-3-20,70.5,58.1,50.1,54.1,50.3,46.1,92,76,45,29.99,29.85,7,2,10,0.00
2013-3-21,67.4,59.0,52.0,54.1,51.5,49.2,91,77,56,29.84,29.70,8,3,14,0.00
2013-3-22,67.1,58.0,51.3,52.9,50.7,48.2,90,78,56,29.80,29.70,11,3,12,0.00
2013-3-23,66.4,59.0,52.6,52.0,50.2,46.8,88,73,57,29.90,29.80,8,3,11,0.00
2013-3-24,71.0,60.7,53.0,53.5,50.8,46.9,89,71,46,29.91,29.78,8,2,11,0.00
2013-3-25,69.4,58.9,52.4,54.5,52.3,49.3,93,80,56,29.88,29.78,8,2,10,0.00
2013-3-26,66.8,59.1,52.4,52.7,51.1,49.2,92,76,56,29.87,29.78,7,2,10,0.00
2013-3-27,65.8,58.7,53.9,51.6,49.9,48.0,85,73,57,29.93,29.82,8,2,13,0.00
2013-3-28,68.9,59.9,52.0,54.1,51.4,48.6,89,74,54,29.97,29.89,11,3,14,0.00
2013-3-29,68.8,58.9,53.2,55.2,52.4,49.7,90,80,60,30.01,29.92,9,2,12,0.00
2013-3-30,68.9,59.2,54.8,54.1,51.5,46.8,89,77,52,30.03,29.94,9,3,12,0.00
2013-3-31,68.4,60.0,54.2,55.8,52.6,50.0,87,77,61,30.03,29.95,10,4,17,0.00
2013-4-1,65.9,59.0,54.2,51.8,49.5,45.7,83,71,53,30.06,29.96,11,4,19,0.00
2013-4-2,67.3,59.6,53.0,53.2,50.4,48.0,85,73,52,29.99,29.88,8,2,12,0.00
2013-4-3,74.1,60.4,53.0,55.4,52.5,50.0,91,76,51,29.98,29.87,10,2,14,0.00
2013-4-4,72.0,61.8,56.5,54.4,52.5,51.1,85,73,49,30.00,29.90,9,4,14,0.00
2013-4-5,67.1,60.1,57.2,55.0,53.3,52.1,88,79,63,29.99,29.90,10,4,16,0.00
2013-4-6,68.4,60.9,56.6,54.5,53.0,51.4,86,76,58,29.97,29.85,9,4,13,0.00
2013-4-7,68.8,60.9,56.8,54.6,53.0,51.4,87,76,57,29.86,29.70,8,3,16,0.00
2013-4-8,66.4,59.9,55.0,53.5,44.1,34.8,87,58,35,29.72,29.55,17,9,24,0.00
2013-4-9,74.1,62.2,49.6,47.4,36.6,24.8,77,43,16,29.89,29.70,14,4,19,0.00
2013-4-10,79.6,63.0,47.1,49.9,42.9,26.7,88,55,15,29.98,29.86,10,3,18,0.00
2013-4-11,70.5,59.1,48.6,53.8,49.4,44.1,86,71,40,29.89,29.68,9,3,16,0.00
2013-4-12,70.1,60.3,55.5,52.3,50.3,48.8,86,70,52,29.79,29.67,8,4,14,0.00
2013-4-13,60.5,57.2,54.7,53.2,51.4,48.1,91,81,76,29.81,29.74,6,3,8,0.00
2013-4-14,62.8,57.2,53.5,51.6,49.2,47.0,83,75,63,29.78,29.72,8,4,14,0.00
2013-4-15,64.6,57.9,55.0,52.2,49.2,46.1,87,73,60,29.80,29.73,8,5,14,0.02
2013-4-16,64.0,57.3,49.5,47.3,41.1,23.9,75,56,25,29.87,29.76,14,6,20,0.00
2013-4-17,73.9,62.7,53.0,42.3,27.7,20.9,66,28,14,30.00,29.88,13,6,18,0.00
2013-4-18,79.9,63.6,46.7,42.2,29.1,18.9,78,35,11,30.08,29.98,13,4,19,0.00
2013-4-19,84.4,65.7,45.8,48.8,34.5,22.5,73,39,11,30.04,29.84,11,3,14,0.00
2013-4-20,78.8,63.6,52.6,55.9,51.5,40.4,91,68,26,29.88,29.76,7,2,10,0.00
2013-4-21,71.0,60.9,55.8,56.9,54.1,52.0,93,79,53,29.90,29.83,8,3,12,0.00
2013-4-22,67.3,60.3,56.0,52.6,51.2,49.2,84,72,58,29.90,29.80,9,4,13,0.00
2013-4-23,68.6,60.8,56.5,52.7,49.8,47.6,79,68,52,29.87,29.75,8,3,11,0.00
2013-4-24,63.3,59.4,57.4,53.1,51.1,48.8,83,74,61,29.87,29.79,7,2,9,0.00
2013-4-25,70.0,62.6,56.8,51.6,49.6,45.8,80,64,44,30.00,29.85,9,3,13,0.01
2013-4-26,74.5,62.1,50.5,52.7,50.0,46.7,89,67,41,30.04,29.98,10,3,12,0.00
2013-4-27,76.8,62.5,51.8,56.1,52.8,48.7,91,72,43,30.04,29.88,7,3,11,0.00
2013-4-28,71.3,62.7,57.2,56.0,54.1,52.5,88,74,57,29.92,29.75,7,3,12,0.00
2013-4-29,66.1,60.3,57.1,54.5,53.1,51.3,89,78,61,29.80,29.68,8,4,10,0.00
2013-4-30,64.9,60.0,57.4,53.4,51.7,50.4,80,74,65,29.78,29.72,8,4,11,0.00
2013-5-1,73.4,63.9,58.7,55.0,53.1,51.0,82,69,52,29.98,29.79,10,3,13,0.00
2013-5-2,91.2,69.7,53.2,55.7,48.7,21.7,91,56,8,30.00,29.86,9,3,17,0.00
2013-5-3,90.1,71.0,51.8,56.7,42.9,24.2,86,46,12,29.89,29.66,9,3,12,0.00
2013-5-4,69.4,62.7,57.8,57.1,54.1,49.3,88,74,59,29.74,29.64,12,6,17,0.00
2013-5-5,66.1,60.8,57.1,54.0,50.8,48.4,89,70,54,29.84,29.72,10,6,16,0.02
2013-5-6,69.3,60.9,56.1,59.4,55.0,52.3,95,82,58,29.90,29.79,10,4,13,0.55
2013-5-7,69.1,61.5,55.4,56.0,51.6,47.1,91,72,49,29.96,29.87,10,3,16,0.27
2013-5-8,69.3,62.1,55.2,54.2,50.1,44.4,87,66,45,29.99,29.95,12,4,17,0.00
2013-5-9,68.8,60.0,52.7,56.2,52.8,49.5,91,78,57,29.99,29.90,10,2,14,0.01
2013-5-10,77.1,64.8,54.8,57.9,55.5,52.4,92,74,48,29.98,29.89,8,2,12,0.01
2013-5-11,79.7,66.5,57.8,61.1,57.7,54.9,91,75,50,29.96,29.86,7,2,10,0.00
2013-5-12,85.7,69.6,59.4,62.1,58.3,53.2,92,70,35,29.95,29.78,7,2,10,0.00
2013-5-13,95.1,76.6,60.8,62.7,54.7,42.5,91,53,23,29.85,29.73,10,3,16,0.00
2013-5-14,79.4,67.3,58.9,57.4,53.7,49.7,82,63,37,29.89,29.78,8,3,12,0.00
2013-5-15,68.9,62.8,57.5,55.9,54.0,52.0,86,73,60,29.94,29.84,8,4,11,0.00
2013-5-16,70.8,63.4,59.7,55.8,53.4,52.0,83,70,57,29.87,29.78,9,4,13,0.00
2013-5-17,71.2,63.9,59.7,56.9,54.9,51.8,83,73,57,29.89,29.80,10,4,17,0.00
2013-5-18,71.7,64.1,56.6,56.6,54.2,51.5,87,71,53,29.93,29.85,8,3,13,0.00
2013-5-19,71.7,64.4,56.8,57.5,55.2,53.1,88,73,58,29.88,29.76,9,3,11,0.00
2013-5-20,75.7,66.2,56.9,60.6,57.8,53.7,91,75,55,29.84,29.76,8,4,11,0.00
2013-5-21,72.4,67.1,62.0,59.0,56.5,-99.9,85,71,61,29.83,29.72,9,4,13,0.00
2013-5-22,72.4,64.9,61.4,56.4,54.4,51.9,82,69,55,29.75,29.66,9,4,12,0.00
2013-5-23,71.5,63.2,57.2,54.3,51.8,49.3,79,67,51,29.82,29.72,9,4,12,0.00
2013-5-24,70.5,62.8,55.8,54.2,52.0,48.5,86,69,52,29.88,29.80,8,3,10,0.00
2013-5-25,71.3,63.0,56.8,54.4,51.4,49.5,81,67,49,29.92,29.85,9,4,11,0.00
2013-5-26,69.6,62.5,55.5,54.8,53.1,51.1,87,72,56,29.95,29.88,8,3,11,0.00
2013-5-27,71.7,64.7,58.3,56.4,54.7,52.7,84,71,58,29.89,29.75,11,4,14,0.00
2013-5-28,73.8,65.8,60.3,60.0,57.0,54.4,84,74,57,29.78,29.63,11,4,13,0.00
2013-5-29,75.5,66.8,60.9,60.4,58.0,56.0,85,74,55,29.70,29.60,8,4,13,0.00
2013-5-30,73.9,65.7,59.0,59.6,57.8,55.4,90,76,58,29.77,29.65,8,3,11,0.00
2013-5-31,78.3,67.3,61.7,61.2,57.6,55.1,83,72,52,29.80,29.69,8,3,11,0.00
2013-6-1,77.3,67.4,63.3,62.6,59.4,57.9,84,76,59,29.75,29.64,8,3,12,0.00
2013-6-2,68.1,64.3,62.0,58.2,56.9,53.6,83,77,66,29.73,29.66,7,3,12,0.00
2013-6-3,71.5,65.1,61.9,57.5,55.6,54.2,79,72,60,29.78,29.69,7,4,14,0.00
2013-6-4,71.8,64.6,61.1,56.6,55.2,54.3,83,72,57,29.86,29.78,9,4,11,0.00
2013-6-5,74.6,64.9,60.3,55.8,54.6,52.7,81,70,49,29.89,29.80,10,4,17,0.00
2013-6-6,72.9,63.9,59.7,58.0,55.4,53.6,82,74,57,29.84,29.75,9,3,12,0.00
2013-6-7,70.1,63.3,60.1,58.3,55.4,53.7,84,76,65,29.80,29.68,10,3,14,0.00
2013-6-8,68.1,62.7,60.3,57.2,55.8,54.8,85,78,66,29.80,29.68,7,3,10,0.00
2013-6-9,68.6,62.5,57.8,57.7,55.5,53.0,84,78,65,29.83,29.76,7,2,10,0.00
2013-6-10,75.0,67.2,57.5,56.4,54.9,53.0,86,66,48,29.84,29.78,10,4,13,0.00
2013-6-11,81.3,68.4,59.5,61.3,57.8,55.3,87,71,48,29.83,29.76,8,3,10,0.00
2013-6-12,68.3,64.2,62.2,59.5,57.4,55.3,85,79,70,29.92,29.81,10,4,14,0.00
2013-6-13,74.8,66.6,60.1,58.1,56.2,55.0,84,70,54,29.90,29.78,7,3,12,0.00
2013-6-14,70.3,63.8,59.7,57.0,55.7,54.0,87,75,60,29.81,29.74,8,3,10,0.00
2013-6-15,72.4,64.5,60.0,56.2,54.2,53.1,81,70,55,29.87,29.78,9,3,10,0.00
2013-6-16,76.1,66.4,59.8,56.9,55.4,54.3,84,69,50,29.92,29.83,11,3,14,0.00
2013-6-17,74.5,65.6,57.5,58.6,56.6,53.9,89,74,51,29.88,29.76,8,2,11,0.00
2013-6-18,74.5,65.7,59.4,59.8,57.9,56.2,90,77,58,29.81,29.72,8,2,11,0.00
2013-6-19,77.3,66.9,60.5,59.0,57.0,54.2,87,71,46,29.76,29.68,9,3,12,0.00
2013-6-20,75.7,66.3,57.5,60.2,56.9,48.9,92,73,41,29.76,29.68,8,3,11,0.00
2013-6-21,73.9,66.4,58.4,60.5,57.9,55.5,91,75,58,29.80,29.72,8,3,14,0.00
2013-6-22,73.8,67.4,61.9,59.4,57.4,53.4,86,71,50,29.81,29.70,7,4,12,0.00
2013-6-23,71.3,65.2,62.4,58.2,56.0,54.3,83,72,59,29.78,29.69,8,4,11,0.00
2013-6-24,73.1,66.3,61.6,58.4,56.8,54.9,87,72,55,29.83,29.72,7,3,11,0.00
2013-6-25,76.2,66.6,61.2,60.6,58.9,57.2,88,77,54,29.89,29.78,7,3,9,0.00
2013-6-26,83.0,69.8,60.5,62.2,59.9,57.2,91,72,47,29.87,29.78,7,3,11,0.00
2013-6-27,79.2,69.0,63.2,63.9,61.9,60.2,91,79,57,29.92,29.85,7,3,10,0.00
2013-6-28,88.4,71.9,62.0,64.5,61.4,59.2,94,72,40,29.89,29.74,7,2,8,0.00
2013-6-29,85.0,74.2,64.5,64.2,61.6,57.4,87,66,45,29.77,29.61,6,2,10,0.00
2013-6-30,81.3,70.7,65.4,66.0,63.6,61.9,91,79,55,29.70,29.59,12,3,15,0.00
2013-7-1,88.4,71.2,64.9,65.9,63.3,61.8,90,78,46,29.78,29.69,7,2,12,0.00
2013-7-2,74.8,68.6,64.8,64.4,62.6,61.4,92,82,66,29.90,29.76,9,3,13,0.00
2013-7-3,79.0,69.3,63.8,63.7,61.0,58.4,89,76,50,29.83,29.69,7,3,10,0.00
2013-7-4,77.1,68.3,63.3,61.5,59.9,58.5,88,76,53,29.72,29.63,7,3,13,0.00
2013-7-5,74.5,67.7,63.3,61.8,60.0,58.7,86,77,63,29.73,29.66,8,3,12,0.00
2013-7-6,75.3,68.1,64.6,62.2,60.4,58.8,85,77,61,29.72,29.63,9,2,11,0.00
2013-7-7,82.5,70.2,64.8,63.9,60.7,58.2,83,73,48,29.75,29.65,7,3,11,0.00
2013-7-8,86.5,70.0,60.3,63.0,58.7,52.3,89,70,31,29.81,29.73,8,2,12,0.00
2013-7-9,76.2,69.6,62.2,63.3,60.6,58.2,88,74,60,29.90,29.78,8,3,13,0.00
2013-7-10,76.2,69.0,65.1,64.7,62.7,61.0,87,81,66,29.86,29.78,5,2,10,0.00
2013-7-11,71.5,68.5,66.6,64.0,62.8,62.0,86,82,76,29.86,29.78,6,2,8,0.00
2013-7-12,81.9,70.3,63.3,64.3,61.7,58.4,87,76,49,29.82,29.73,7,2,10,0.00
2013-7-13,81.7,69.7,62.4,61.8,59.8,57.9,86,72,47,29.84,29.73,8,3,10,0.00
2013-7-14,80.3,70.5,62.5,63.5,60.7,57.0,88,73,45,29.82,29.70,7,2,11,0.00
2013-7-15,84.8,71.2,63.0,63.2,59.0,50.8,91,68,38,29.76,29.67,8,2,12,0.00
2013-7-16,85.5,70.0,57.5,60.4,55.9,49.7,89,64,32,29.86,29.75,8,3,10,0.00
2013-7-17,87.5,71.4,57.5,61.4,55.0,47.4,90,60,28,29.90,29.82,8,3,12,0.00
2013-7-18,81.9,68.8,59.4,60.7,57.7,55.2,89,69,47,29.87,29.74,9,3,12,0.00
2013-7-19,75.0,66.9,60.6,61.5,59.4,56.7,89,77,62,29.80,29.71,9,3,13,0.00
2013-7-20,70.1,65.9,63.8,61.8,60.0,58.7,86,81,73,29.78,29.69,8,2,9,0.00
2013-7-21,68.9,66.0,63.7,61.8,60.2,59.1,86,82,77,29.81,29.69,5,2,7,0.00
2013-7-22,80.9,70.0,63.8,62.5,61.1,59.6,87,75,52,29.86,29.80,9,2,10,0.00
2013-7-24,81.1,72.0,63.5,61.9,59.8,57.3,82,66,49,29.86,29.77,7,4,11,0.00
2013-7-25,79.2,67.4,60.9,60.9,58.5,56.4,86,74,52,29.90,29.81,8,3,12,0.00
2013-7-26,80.5,69.3,62.8,62.5,59.8,57.0,90,73,52,29.98,29.85,7,3,11,0.03
2013-7-27,75.3,67.9,62.4,61.1,58.7,55.6,86,73,59,29.90,29.76,9,3,12,0.00
2013-7-28,73.2,65.1,60.9,59.6,57.8,56.3,89,78,62,29.82,29.76,8,3,13,0.00
2013-7-29,74.8,66.9,61.7,57.5,55.8,54.2,82,68,53,29.92,29.81,7,3,11,0.00
2013-7-30,77.1,66.1,58.7,58.0,56.1,54.6,88,71,48,30.01,29.92,8,3,12,0.00
2013-7-31,73.2,65.3,60.6,58.0,55.9,54.7,84,72,57,30.00,29.88,9,3,13,0.00
2013-8-1,73.4,65.6,60.1,57.8,56.1,54.6,84,72,57,29.92,29.79,9,2,12,0.00
2013-8-2,76.2,67.0,60.9,58.8,57.3,55.7,86,72,51,29.86,29.78,8,3,11,0.00
2013-8-3,75.3,67.5,61.9,59.7,57.8,56.6,83,72,57,29.89,29.81,9,3,15,0.00
2013-8-4,77.7,66.9,61.1,60.1,57.9,56.3,85,74,51,29.90,29.81,8,3,10,0.00
2013-8-5,79.2,65.9,60.0,59.2,57.2,55.6,89,75,50,29.90,29.80,8,2,12,0.00
2013-8-6,76.4,66.1,60.3,58.4,56.3,54.6,87,72,50,29.93,29.85,7,3,8,0.00
2013-8-7,75.5,65.1,59.4,57.8,56.4,54.9,87,74,51,29.98,29.85,8,3,12,0.00
2013-8-8,78.1,65.0,56.6,59.2,56.5,53.7,91,75,49,29.89,29.78,8,2,12,0.00
2013-8-9,72.5,64.5,57.2,57.8,56.4,54.3,91,76,59,29.86,29.80,8,2,13,0.00
2013-8-10,72.5,65.5,59.7,58.0,56.4,55.1,88,73,57,29.93,29.83,7,3,11,0.00
2013-8-11,78.3,66.5,59.7,58.6,57.0,53.3,88,73,44,29.89,29.77,7,2,11,0.00
2013-8-12,77.3,66.5,59.0,60.2,57.7,55.1,88,74,54,29.87,29.77,8,2,11,0.00
2013-8-13,79.2,67.0,60.6,61.1,58.6,56.4,88,75,51,29.87,29.75,6,2,10,0.00
2013-8-14,73.2,65.7,61.1,61.5,59.4,57.5,90,81,64,29.81,29.72,8,3,11,0.00
2013-8-15,75.0,67.3,62.8,62.4,60.3,58.9,88,79,62,29.83,29.76,8,3,11,0.00
2013-8-16,83.6,70.2,61.9,63.0,60.3,57.1,93,73,44,29.85,29.77,7,2,8,0.00
2013-8-17,82.8,69.9,61.2,62.3,59.4,57.2,91,72,42,29.84,29.69,8,2,10,0.00
2013-8-18,73.4,66.4,61.7,61.5,59.5,58.2,90,79,65,29.80,29.72,7,3,11,0.00
2013-8-19,74.3,67.3,63.5,61.3,59.9,58.4,86,78,60,29.84,29.74,6,3,10,0.00
2013-8-20,82.8,69.0,62.5,61.6,59.1,57.3,87,72,44,29.82,29.72,7,3,10,0.00
2013-8-21,83.6,70.8,59.8,61.6,57.2,53.3,89,65,41,29.80,29.71,8,3,13,0.00
2013-8-22,86.9,73.2,60.6,60.5,55.8,48.5,87,58,27,29.81,29.68,9,3,11,0.00
2013-8-23,87.3,71.1,60.0,61.3,57.0,47.0,90,64,28,29.75,29.61,8,2,11,0.00
2013-8-24,80.5,66.0,58.3,62.0,58.1,55.4,91,77,46,29.76,29.64,8,2,14,0.00
2013-8-25,81.1,66.7,59.2,60.3,58.2,55.7,93,77,45,29.79,29.72,6,2,8,0.00
2013-8-26,89.5,74.9,61.7,61.4,56.4,47.9,88,57,28,29.80,29.69,8,2,9,0.00
2013-8-27,88.8,72.4,64.9,62.0,58.3,53.0,84,63,30,29.73,29.64,8,3,10,0.00
2013-8-28,91.9,76.6,64.8,61.5,56.7,42.4,83,54,21,29.76,29.66,8,3,12,0.00
2013-8-29,95.6,78.6,65.3,62.3,57.4,49.7,83,52,26,29.80,29.73,7,2,11,0.00
2013-8-30,88.0,78.1,70.5,66.5,62.7,60.6,74,60,41,29.85,29.76,8,3,12,0.00
2013-8-31,90.6,79.4,72.0,68.9,65.3,60.9,76,63,46,29.84,29.75,8,2,12,0.00
2013-9-1,89.2,77.0,69.4,68.6,64.9,60.9,81,67,49,29.81,29.72,8,3,12,0.00
2013-9-2,89.7,75.1,67.1,66.8,64.9,63.6,91,72,44,29.80,29.67,8,3,15,0.00
2013-9-3,92.3,77.5,68.3,66.8,64.0,61.6,86,65,38,29.78,29.68,9,2,10,0.00
2013-9-4,95.3,77.9,66.8,66.2,61.1,55.7,86,60,30,29.78,29.70,9,2,11,0.00
2013-9-5,95.3,76.9,66.1,63.5,60.1,55.0,84,60,29,29.76,29.68,8,2,12,0.00
2013-9-6,97.0,77.6,65.1,65.3,60.1,51.9,88,60,22,29.74,29.65,8,2,10,0.00
2013-9-7,93.4,76.9,66.3,64.9,60.4,53.4,85,61,28,29.73,29.66,8,2,11,0.00
2013-9-8,83.6,71.0,63.0,62.3,59.5,55.0,87,69,42,29.73,29.63,7,2,9,0.00
2013-9-9,76.6,68.1,62.4,61.3,58.4,56.5,87,72,52,29.70,29.62,7,2,11,0.00
2013-9-10,75.3,66.7,60.3,58.1,57.0,56.0,87,72,53,29.83,29.69,7,2,10,0.00
2013-9-11,75.9,66.5,59.2,58.9,57.6,55.3,89,74,54,29.89,29.80,9,3,12,0.00
2013-9-12,85.9,69.4,58.3,62.2,58.7,55.1,91,71,36,29.83,29.70,8,2,10,0.00
2013-9-13,83.2,69.6,59.2,62.2,59.6,56.6,92,72,44,29.72,29.54,6,2,11,0.00
2013-9-14,83.8,69.1,61.6,63.4,60.2,56.5,93,75,40,29.61,29.50,7,2,10,0.00
2013-9-15,85.9,70.7,61.9,64.9,60.8,56.5,94,73,43,29.65,29.58,8,2,11,0.00
2013-9-16,88.4,72.5,61.1,63.2,59.3,54.6,91,67,34,29.70,29.60,8,2,9,0.00
2013-9-17,72.4,65.2,61.4,60.9,57.6,-99.9,92,80,64,29.71,29.62,7,-3,11,0.00
2013-9-18,74.1,67.0,61.4,59.3,57.7,55.7,89,73,56,29.70,29.63,8,3,11,0.00
2013-9-19,74.8,65.7,58.6,60.6,58.8,55.8,92,79,61,29.72,29.64,8,2,12,0.00
2013-9-20,70.0,66.3,64.8,60.7,59.1,56.7,83,78,70,29.77,29.70,5,2,8,0.00
2013-9-21,73.8,66.9,62.0,59.1,56.2,53.7,86,69,55,29.80,29.69,10,4,12,0.00
2013-9-22,74.5,65.4,56.0,59.1,55.0,42.5,91,71,32,29.74,29.66,9,2,12,0.00
2013-9-23,93.0,71.1,53.9,57.9,51.2,42.9,90,57,18,29.77,29.67,7,2,10,0.00
2013-9-24,83.4,70.0,57.2,58.8,52.3,38.9,87,59,23,29.80,29.70,8,2,11,0.00
2013-9-25,73.6,67.3,62.4,61.9,57.7,50.0,87,72,57,29.74,29.59,10,4,14,0.00
2013-9-26,74.6,65.4,58.0,55.7,49.8,-99.9,82,61,31,29.76,29.60,12,4,17,0.00
2013-9-27,83.8,67.1,51.3,50.2,43.0,31.3,86,49,18,29.86,29.76,10,2,16,0.00
2013-9-28,88.8,67.9,50.2,47.4,41.8,30.3,78,46,13,29.92,29.82,9,2,14,0.00
2013-9-29,82.6,65.7,51.0,55.0,45.5,-99.9,80,53,23,29.95,29.84,9,-16,12,0.00
2013-9-30,75.9,65.8,55.0,61.0,57.0,50.9,92,74,51,29.87,29.73,8,2,11,0.00
2013-10-1,75.3,64.7,59.0,60.5,54.7,-99.9,91,75,57,29.82,29.75,7,-22,12,0.00
2013-10-2,72.5,66.2,62.2,58.7,56.8,55.1,81,72,59,29.86,29.76,7,3,11,0.00
2013-10-3,72.9,65.6,60.0,58.4,57.2,55.5,87,75,57,29.81,29.70,9,2,13,0.00
2013-10-4,84.6,71.1,58.3,58.8,43.5,-99.9,89,49,11,29.90,29.76,12,-9,13,0.00
2013-10-5,90.6,78.4,61.4,41.0,29.1,22.7,47,18,10,29.98,29.88,11,5,17,0.00
2013-10-6,92.5,71.4,51.1,47.7,36.7,25.0,63,35,9,29.95,29.82,8,3,11,0.00
2013-10-7,80.1,66.6,55.1,58.7,51.0,40.2,85,60,31,29.85,29.76,7,2,12,0.00
2013-10-8,71.3,60.9,54.7,59.6,49.5,-99.9,92,72,55,29.81,29.70,7,-28,11,0.00
2013-10-9,65.4,60.1,55.2,52.4,48.6,43.2,84,66,52,29.71,29.60,14,5,21,0.04
2013-10-10,68.4,58.1,47.7,52.0,48.6,45.5,93,73,46,29.90,29.69,7,2,11,0.01
2013-10-11,73.1,60.2,48.3,54.7,51.0,45.3,91,74,49,29.93,29.82,8,2,11,0.00
2013-10-12,72.2,60.9,50.2,58.1,53.9,47.7,93,79,55,29.86,29.77,8,2,11,0.00
2013-10-13,68.9,61.5,55.5,55.8,53.6,51.6,90,76,56,29.91,29.82,7,2,10,0.00
2013-10-14,84.8,64.6,51.0,55.6,50.8,43.5,92,67,24,29.90,29.76,8,2,10,0.00
2013-10-15,86.5,67.9,51.3,54.1,44.7,33.8,91,52,16,29.84,29.73,8,2,12,0.00
2013-10-16,86.3,68.1,51.7,46.3,39.0,29.1,79,42,13,29.94,29.84,8,2,8,0.00
2013-10-17,78.3,64.1,48.3,58.3,45.8,35.8,79,55,22,29.92,29.80,7,2,11,0.00
2013-10-18,82.3,64.2,50.2,56.4,50.2,43.3,89,64,30,29.89,29.79,6,2,7,0.00
2013-10-19,78.8,64.9,55.8,59.4,54.7,41.3,94,73,29,29.90,29.83,7,2,10,0.00
2013-10-20,70.5,62.3,55.5,58.1,56.1,52.3,93,81,63,29.87,29.77,7,2,8,0.00
2013-10-21,71.5,62.0,56.0,55.8,54.4,51.7,91,77,52,29.87,29.78,5,2,8,0.00
2013-10-22,73.2,61.4,52.3,57.7,54.5,49.5,92,79,56,29.89,29.77,6,2,11,0.00
2013-10-23,66.3,61.3,55.4,55.3,53.7,51.4,89,76,63,29.86,29.79,8,2,13,0.00
2013-10-24,67.8,61.7,55.0,54.7,52.9,50.8,86,73,62,29.93,29.84,8,2,11,0.00
2013-10-25,70.8,61.9,53.6,56.5,54.4,49.8,89,77,58,30.01,29.88,5,2,7,0.00
2013-10-26,72.0,60.5,53.8,59.2,55.4,51.0,94,84,63,29.97,29.84,5,1,7,0.00
2013-10-27,68.8,61.0,55.1,58.1,55.9,52.2,94,84,67,29.85,29.70,9,3,11,0.01
2013-10-28,64.9,59.8,53.9,55.0,50.1,46.4,87,71,57,29.82,29.70,12,5,18,0.00
2013-10-29,66.4,58.3,51.4,52.8,49.2,47.1,93,73,52,29.89,29.81,9,3,13,0.04
2013-10-30,70.0,57.6,47.0,52.9,47.9,40.8,92,72,36,29.95,29.86,7,2,10,0.00
2013-10-31,78.4,60.1,47.0,51.4,45.8,38.5,91,64,25,29.97,29.85,7,2,10,0.00
2013-11-1,85.5,63.7,45.9,50.3,43.5,37.7,87,55,20,29.98,29.80,6,1,7,0.00
2013-11-2,77.9,61.1,48.4,58.1,49.7,38.3,90,70,25,29.87,29.76,9,2,13,0.00
2013-11-3,67.9,61.4,57.5,56.4,53.4,50.7,91,76,57,29.81,29.70,7,2,10,0.00
2013-11-4,66.8,60.5,53.0,53.4,50.7,48.9,87,70,60,29.82,29.68,7,2,13,0.00
2013-11-5,76.2,60.2,46.7,53.3,41.2,26.0,92,57,16,30.01,29.83,6,2,8,0.00
2013-11-6,80.3,61.5,45.5,41.8,34.9,26.2,70,42,14,30.07,29.96,6,2,11,0.00
2013-11-7,83.6,63.6,47.4,43.5,34.5,25.1,70,38,13,29.99,29.86,5,1,10,0.00
2013-11-8,72.0,59.6,45.9,57.1,50.0,40.7,92,72,45,29.92,29.81,5,1,7,0.00
2013-11-9,74.1,53.5,52.3,56.0,35.0,-99.9,95,69,28,29.95,29.88,5,-107,8,0.01
2013-11-10,81.1,59.7,48.7,55.3,48.5,36.0,94,72,20,30.01,29.91,7,2,11,0.00
2013-11-11,77.5,59.1,44.6,55.4,48.2,42.1,92,71,33,30.01,29.90,6,1,11,0.00
2013-11-12,74.8,59.7,49.8,56.1,48.5,-99.9,91,71,34,30.04,29.93,5,1,8,0.00
2013-11-13,89.7,66.1,48.1,52.4,45.3,35.7,87,54,18,29.93,29.75,6,1,7,0.00
2013-11-14,87.1,65.7,51.6,59.2,47.0,37.1,91,56,18,29.80,29.66,6,2,11,0.00
2013-11-15,68.1,61.6,57.2,57.5,54.4,52.0,91,78,60,29.65,29.56,9,3,14,0.00
2013-11-16,66.4,59.4,51.8,53.3,49.1,45.6,88,70,50,29.82,29.64,6,2,13,0.00
2013-11-17,67.6,57.6,48.6,52.7,49.2,45.2,90,75,56,29.98,29.83,7,1,10,0.00
2013-11-18,68.8,58.0,48.1,54.2,50.5,45.2,92,77,54,30.04,29.93,7,2,8,0.00
2013-11-19,64.1,59.2,55.2,52.7,51.0,49.7,84,75,62,29.97,29.84,7,2,9,0.00
2013-11-20,63.3,58.7,53.3,55.5,52.6,49.2,92,80,65,29.86,29.77,5,1,7,0.14
2013-11-21,62.7,58.4,53.6,57.5,54.2,50.3,94,86,72,29.77,29.71,10,3,13,0.29
2013-11-22,63.0,55.2,51.0,51.0,43.7,36.4,92,68,42,29.83,29.71,6,2,12,0.02
2013-11-23,67.3,55.7,47.0,47.2,42.8,37.6,85,64,36,29.97,29.83,7,2,10,0.00
2013-11-24,67.1,54.9,43.9,47.5,43.2,38.5,85,67,35,30.07,29.97,7,1,9,0.00
2013-11-25,72.0,55.8,42.4,50.4,42.8,39.0,90,66,31,30.12,30.03,6,1,8,0.00
2013-11-26,74.8,58.4,43.9,48.1,43.3,38.4,87,61,29,30.07,29.92,5,1,8,0.00
2013-11-27,73.4,57.4,47.0,45.7,43.0,37.8,85,63,30,29.91,29.75,6,1,10,0.00
2013-11-28,68.3,56.0,45.0,53.9,47.9,40.1,89,75,46,29.94,29.77,6,1,8,0.00
2013-11-29,63.2,55.9,51.0,56.1,51.5,48.3,93,85,65,30.06,29.93,3,0,5,0.31
2013-11-30,74.3,58.4,49.0,53.7,47.9,43.4,94,72,34,30.06,29.94,5,2,10,0.01
2013-12-1,81.1,60.7,46.7,48.3,43.1,36.1,90,60,20,30.09,29.96,5,1,7,0.00
2013-12-2,72.4,55.4,45.0,50.0,42.9,35.6,87,66,27,29.99,29.80,3,0,6,0.00
2013-12-3,63.5,54.9,45.0,52.8,47.5,41.4,91,77,59,29.80,29.63,9,3,13,0.00
2013-12-4,61.7,52.3,44.2,43.8,34.4,22.8,71,52,31,29.84,29.66,8,3,12,0.00
2013-12-5,60.8,49.0,38.7,38.9,36.0,33.8,84,63,37,29.98,29.83,7,1,8,0.00
2013-12-6,60.5,48.4,38.1,42.4,38.0,34.3,87,69,46,30.06,29.83,7,2,9,0.00
2013-12-7,56.8,47.5,40.6,50.9,38.9,27.5,91,73,49,30.12,30.01,15,3,19,0.11
2013-12-8,56.1,43.9,33.7,37.7,33.5,28.3,86,68,41,30.21,30.10,5,1,6,0.00
2013-12-9,62.5,47.9,35.0,35.3,19.3,2.7,88,44,11,30.30,30.20,12,3,14,0.00
2013-12-10,67.6,51.4,37.1,35.5,20.1,6.4,54,32,13,30.27,30.08,8,4,12,0.00
2013-12-11,72.9,52.2,37.8,46.0,30.1,18.5,85,48,15,30.17,30.10,6,2,9,0.00
2013-12-12,65.3,51.9,39.8,50.7,43.3,32.5,90,73,55,30.22,30.14,5,1,8,0.00
2013-12-13,64.3,50.4,39.1,49.1,43.9,37.0,94,80,48,30.24,30.14,4,1,6,0.00
2013-12-14,74.8,54.7,39.4,44.5,36.2,25.3,92,58,16,30.29,30.18,6,2,8,0.01
2013-12-15,79.6,58.5,41.3,38.7,30.7,23.5,67,40,13,30.24,30.06,8,3,11,0.00
2013-12-16,81.9,63.8,50.8,49.3,36.0,27.1,61,37,17,30.12,30.04,6,2,8,0.00
2013-12-17,73.6,59.8,46.5,53.9,47.0,40.9,81,64,33,30.13,30.00,5,0,6,0.00
2013-12-18,67.9,57.7,52.4,55.3,51.3,47.6,90,80,50,30.01,29.87,7,2,11,0.00
2013-12-19,56.5,52.5,44.5,49.2,44.9,40.9,90,75,61,29.88,29.72,8,2,11,0.19
2013-12-20,61.2,49.2,39.4,49.2,43.7,37.3,94,82,62,29.95,29.78,5,1,10,0.01
2013-12-21,60.6,50.2,41.6,49.9,44.5,39.2,93,82,62,30.09,29.93,6,1,9,0.00
2013-12-22,67.8,51.4,40.4,50.1,44.8,38.2,93,80,46,30.27,30.09,7,1,9,0.01
2013-12-23,76.1,56.1,42.0,47.6,41.4,34.7,93,64,23,30.32,30.18,8,2,8,0.00
2013-12-24,76.1,56.7,43.4,48.8,40.9,36.6,78,58,30,30.20,30.08,5,1,6,0.00
2013-12-25,81.5,60.5,44.0,41.7,30.7,18.1,74,40,12,30.20,30.09,11,3,14,0.00
2013-12-26,81.7,59.6,42.8,30.7,25.1,17.4,53,31,10,30.17,30.05,10,2,12,0.00
2013-12-27,81.9,59.1,41.1,38.8,28.4,19.3,57,35,10,30.15,30.03,4,1,6,0.00
2013-12-28,67.9,54.9,46.2,53.6,43.7,34.3,91,68,31,30.04,29.94,7,2,11,0.00
2013-12-29,78.4,56.6,44.7,49.3,36.7,21.0,95,58,12,30.15,30.01,5,1,6,0.01
2013-12-30,74.1,52.9,37.3,41.0,33.9,26.1,80,54,18,30.26,30.14,6,1,6,0.00
2013-12-31,67.3,51.5,37.8,51.5,39.8,29.5,87,68,27,30.21,30.09,5,1,7,0.00
2014-1-1,67.6,52.2,41.3,52.0,44.0,38.5,93,76,35,30.15,30.04,4,1,6,0.00
2014-1-2,75.7,54.6,40.8,52.4,45.8,34.5,93,76,23,30.11,29.99,5,1,6,0.01